createdAt,value
2018-04-22T00:01:12.926Z,15.23
2018-04-22T00:03:42.321Z,15.24
2018-04-22T00:06:11.186Z,15.27
2018-04-22T00:08:42.358Z,15.26
2018-04-22T00:11:11.135Z,15.21
2018-04-22T00:13:39.655Z,15.16
2018-04-22T00:16:09.424Z,15.05
2018-04-22T00:18:39.991Z,14.93
2018-04-22T00:21:09.720Z,14.86
2018-04-22T00:23:42.187Z,14.84
2018-04-22T00:26:10.969Z,14.80
2018-04-22T00:28:40.897Z,14.75
2018-04-22T00:31:10.627Z,14.76
2018-04-22T00:33:39.399Z,14.79
2018-04-22T00:36:09.881Z,14.77
2018-04-22T00:38:38.625Z,14.75
2018-04-22T00:41:07.522Z,14.70
2018-04-22T00:43:36.309Z,14.61
2018-04-22T00:46:05.193Z,14.57
2018-04-22T00:48:34.006Z,14.56
2018-04-22T00:51:03.000Z,14.54
2018-04-22T00:53:40.285Z,14.50
2018-04-22T00:56:09.174Z,14.48
2018-04-22T00:58:38.786Z,14.47
2018-04-22T01:01:09.013Z,14.45
2018-04-22T01:03:37.915Z,14.45
2018-04-22T01:06:06.795Z,14.41
2018-04-22T01:08:35.581Z,14.41
2018-04-22T01:11:04.369Z,14.41
2018-04-22T01:13:33.169Z,14.39
2018-04-22T01:16:02.069Z,14.34
2018-04-22T01:18:33.408Z,14.27
2018-04-22T01:21:04.861Z,14.21
2018-04-22T01:23:33.649Z,14.17
2018-04-22T01:26:02.334Z,14.15
2018-04-22T01:28:31.030Z,14.13
2018-04-22T01:31:01.322Z,14.08
2018-04-22T01:33:33.192Z,14.00
2018-04-22T01:36:01.909Z,13.97
2018-04-22T01:38:33.373Z,13.93
2018-04-22T01:41:02.053Z,13.92
2018-04-22T01:43:34.883Z,13.90
2018-04-22T01:46:03.462Z,13.89
2018-04-22T01:48:33.132Z,13.91
2018-04-22T01:51:01.864Z,13.91
2018-04-22T01:53:33.271Z,13.90
2018-04-22T01:56:01.911Z,13.91
2018-04-22T01:58:33.419Z,13.92
2018-04-22T02:01:02.952Z,13.94
2018-04-22T02:03:31.574Z,13.93
2018-04-22T02:05:59.810Z,13.92
2018-04-22T02:08:28.600Z,13.92
2018-04-22T02:10:57.182Z,13.91
2018-04-22T02:13:25.559Z,13.86
2018-04-22T02:15:54.443Z,13.85
2018-04-22T02:18:22.949Z,13.79
2018-04-22T02:20:51.251Z,13.73
2018-04-22T02:23:21.851Z,13.60
2018-04-22T02:25:50.496Z,13.49
2018-04-22T02:28:21.677Z,13.14
2018-04-22T02:30:49.898Z,12.93
2018-04-22T02:33:18.521Z,12.91
2018-04-22T02:35:46.757Z,12.96
2018-04-22T02:38:16.105Z,12.95
2018-04-22T02:40:44.633Z,12.88
2018-04-22T02:43:18.458Z,12.89
2018-04-22T02:45:47.937Z,12.90
2018-04-22T02:48:16.185Z,12.91
2018-04-22T02:50:46.465Z,12.94
2018-04-22T02:53:15.942Z,12.95
2018-04-22T02:55:44.631Z,12.94
2018-04-22T02:58:13.304Z,12.94
2018-04-22T03:00:41.508Z,12.93
2018-04-22T03:03:09.748Z,12.91
2018-04-22T03:05:41.010Z,12.89
2018-04-22T03:08:09.465Z,12.82
2018-04-22T03:10:37.962Z,12.76
2018-04-22T03:13:06.152Z,12.78
2018-04-22T03:15:35.415Z,12.82
2018-04-22T03:18:06.780Z,12.84
2018-04-22T03:20:36.713Z,12.82
2018-04-22T03:23:06.113Z,12.85
2018-04-22T03:25:34.833Z,12.84
2018-04-22T03:28:04.735Z,12.82
2018-04-22T03:30:33.233Z,12.81
2018-04-22T03:33:01.873Z,12.81
2018-04-22T03:35:30.697Z,12.82
2018-04-22T03:37:58.931Z,12.85
2018-04-22T03:40:27.109Z,12.86
2018-04-22T03:42:55.771Z,12.86
2018-04-22T03:45:24.356Z,12.82
2018-04-22T03:47:52.858Z,12.78
2018-04-22T03:50:21.691Z,12.75
2018-04-22T03:52:51.985Z,12.73
2018-04-22T03:55:22.585Z,12.72
2018-04-22T03:57:50.798Z,12.72
2018-04-22T04:00:22.226Z,12.73
2018-04-22T04:02:50.574Z,12.68
2018-04-22T04:05:20.164Z,12.67
2018-04-22T04:07:48.885Z,12.66
2018-04-22T04:10:18.758Z,12.59
2018-04-22T04:12:47.404Z,12.51
2018-04-22T04:15:16.169Z,12.47
2018-04-22T04:17:45.078Z,12.47
2018-04-22T04:20:25.913Z,12.46
2018-04-22T04:22:55.049Z,12.45
2018-04-22T04:28:37.674Z,12.37
2018-04-22T04:31:11.743Z,12.30
2018-04-22T04:33:41.598Z,12.24
2018-04-22T04:36:10.297Z,12.24
2018-04-22T04:38:38.975Z,12.28
2018-04-22T04:41:09.504Z,12.32
2018-04-22T04:43:39.085Z,12.38
2018-04-22T04:46:11.459Z,12.44
2018-04-22T04:48:42.515Z,12.50
2018-04-22T04:51:11.114Z,12.57
2018-04-22T04:53:40.017Z,12.63
2018-04-22T04:56:14.425Z,12.66
2018-04-22T04:58:43.124Z,12.71
2018-04-22T05:01:14.786Z,12.74
2018-04-22T05:03:44.515Z,12.75
2018-04-22T05:06:13.683Z,12.76
2018-04-22T05:08:42.588Z,12.75
2018-04-22T05:11:12.133Z,12.78
2018-04-22T05:13:42.624Z,12.82
2018-04-22T05:16:12.027Z,12.89
2018-04-22T05:18:40.320Z,12.92
2018-04-22T05:21:11.772Z,12.95
2018-04-22T05:23:40.429Z,13.01
2018-04-22T05:26:09.122Z,13.05
2018-04-22T05:28:38.082Z,13.14
2018-04-22T05:31:06.758Z,13.23
2018-04-22T05:33:37.863Z,13.29
2018-04-22T05:36:06.760Z,13.27
2018-04-22T05:38:35.544Z,13.28
2018-04-22T05:41:04.947Z,13.30
2018-04-22T05:43:33.258Z,13.33
2018-04-22T05:46:02.022Z,13.27
2018-04-22T05:48:30.942Z,13.11
2018-04-22T05:51:02.286Z,12.95
2018-04-22T05:53:32.887Z,13.05
2018-04-22T05:56:04.679Z,13.19
2018-04-22T05:58:33.478Z,13.31
2018-04-22T06:01:03.529Z,13.42
2018-04-22T06:03:32.871Z,13.51
2018-04-22T06:06:01.581Z,13.57
2018-04-22T06:08:30.518Z,13.66
2018-04-22T06:11:00.670Z,13.76
2018-04-22T06:13:32.045Z,13.87
2018-04-22T06:16:02.616Z,13.98
2018-04-22T06:18:31.997Z,14.11
2018-04-22T06:21:00.853Z,14.23
2018-04-22T06:23:31.228Z,14.33
2018-04-22T06:25:59.996Z,14.44
2018-04-22T06:28:28.904Z,14.53
2018-04-22T06:30:58.305Z,14.65
2018-04-22T06:33:27.104Z,14.74
2018-04-22T06:35:55.697Z,14.83
2018-04-22T06:38:24.406Z,14.93
2018-04-22T06:40:54.674Z,15.01
2018-04-22T06:43:26.618Z,15.08
2018-04-22T06:45:55.460Z,15.16
2018-04-22T06:48:24.241Z,15.25
2018-04-22T06:50:53.158Z,15.35
2018-04-22T06:53:22.949Z,15.45
2018-04-22T06:55:51.844Z,15.56
2018-04-22T06:58:22.059Z,15.66
2018-04-22T07:00:54.250Z,15.73
2018-04-22T07:03:23.261Z,15.79
2018-04-22T07:05:53.078Z,15.86
2018-04-22T07:08:23.841Z,15.95
2018-04-22T07:10:52.966Z,16.04
2018-04-22T07:13:23.028Z,16.11
2018-04-22T07:15:53.354Z,16.15
2018-04-22T07:18:22.962Z,16.25
2018-04-22T07:20:51.710Z,16.34
2018-04-22T07:23:21.559Z,16.46
2018-04-22T07:25:52.201Z,16.57
2018-04-22T07:28:21.903Z,16.69
2018-04-22T07:30:50.953Z,16.79
2018-04-22T07:33:19.484Z,16.89
2018-04-22T07:35:53.121Z,17.03
2018-04-22T07:38:21.789Z,17.16
2018-04-22T07:40:50.474Z,17.24
2018-04-22T07:43:19.173Z,17.33
2018-04-22T07:45:48.478Z,17.45
2018-04-22T07:48:17.056Z,17.58
2018-04-22T07:50:45.849Z,17.68
2018-04-22T07:53:16.368Z,17.77
2018-04-22T07:55:45.236Z,17.87
2018-04-22T07:58:15.095Z,17.95
2018-04-22T08:00:46.232Z,18.04
2018-04-22T08:03:17.388Z,18.10
2018-04-22T08:05:51.928Z,18.19
2018-04-22T08:08:23.680Z,18.33
2018-04-22T08:10:53.575Z,18.45
2018-04-22T08:13:22.280Z,18.62
2018-04-22T08:15:51.197Z,18.73
2018-04-22T08:18:23.362Z,18.85
2018-04-22T08:20:53.035Z,18.99
2018-04-22T08:23:22.073Z,19.10
2018-04-22T08:25:53.736Z,19.18
2018-04-22T08:28:25.979Z,19.26
2018-04-22T08:30:55.212Z,19.35
2018-04-22T08:33:23.983Z,19.49
2018-04-22T08:35:55.268Z,19.61
2018-04-22T08:38:26.214Z,19.68
2018-04-22T08:40:57.202Z,19.76
2018-04-22T08:43:25.915Z,19.87
2018-04-22T08:45:59.136Z,19.99
2018-04-22T08:48:35.267Z,20.17
2018-04-22T08:51:03.987Z,20.37
2018-04-22T08:53:32.663Z,20.47
2018-04-22T08:56:02.278Z,20.52
2018-04-22T08:58:30.774Z,20.61
2018-04-22T09:01:03.167Z,20.70
2018-04-22T09:03:31.533Z,20.88
2018-04-22T09:06:00.387Z,21.06
2018-04-22T09:08:29.089Z,21.20
2018-04-22T09:10:58.824Z,21.33
2018-04-22T09:13:29.462Z,21.38
2018-04-22T09:15:58.169Z,21.48
2018-04-22T09:18:30.929Z,21.72
2018-04-22T09:20:59.797Z,21.77
2018-04-22T09:23:30.081Z,21.86
2018-04-22T09:25:59.948Z,21.89
2018-04-22T09:28:28.745Z,21.97
2018-04-22T09:30:57.824Z,22.07
2018-04-22T09:33:28.189Z,22.13
2018-04-22T09:35:56.910Z,22.15
2018-04-22T09:38:29.069Z,22.28
2018-04-22T09:40:58.060Z,22.38
2018-04-22T09:43:28.522Z,22.45
2018-04-22T09:45:58.077Z,22.54
2018-04-22T09:48:28.705Z,22.64
2018-04-22T09:50:59.167Z,22.80
2018-04-22T09:53:28.054Z,22.99
2018-04-22T09:55:57.020Z,23.04
2018-04-22T09:58:26.385Z,23.03
2018-04-22T10:01:01.752Z,23.04
2018-04-22T10:03:37.865Z,23.07
2018-04-22T10:06:07.729Z,23.11
2018-04-22T10:08:39.218Z,23.13
2018-04-22T10:11:08.336Z,23.13
2018-04-22T10:13:42.953Z,23.20
2018-04-22T10:16:13.330Z,23.29
2018-04-22T10:18:43.769Z,23.45
2018-04-22T10:21:13.673Z,23.60
2018-04-22T10:23:42.862Z,23.66
2018-04-22T10:26:11.191Z,23.68
2018-04-22T10:28:42.515Z,23.71
2018-04-22T10:31:13.997Z,23.77
2018-04-22T10:33:45.637Z,23.82
2018-04-22T10:36:15.898Z,23.82
2018-04-22T10:38:46.395Z,23.86
2018-04-22T10:41:17.955Z,23.98
2018-04-22T10:43:47.877Z,24.20
2018-04-22T10:46:19.051Z,24.39
2018-04-22T10:48:48.845Z,24.49
2018-04-22T10:51:21.992Z,24.48
2018-04-22T10:53:52.730Z,24.45
2018-04-22T10:56:22.845Z,24.46
2018-04-22T10:58:51.899Z,24.52
2018-04-22T11:01:23.266Z,24.62
2018-04-22T11:03:53.771Z,24.74
2018-04-22T11:06:25.438Z,24.81
2018-04-22T11:08:54.443Z,24.76
2018-04-22T11:11:23.439Z,24.79
2018-04-22T11:13:52.961Z,24.87
2018-04-22T11:16:27.359Z,24.88
2018-04-22T11:18:56.055Z,24.94
2018-04-22T11:21:24.737Z,25.07
2018-04-22T11:23:56.163Z,25.15
2018-04-22T11:26:27.595Z,25.15
2018-04-22T11:28:56.224Z,25.21
2018-04-22T11:31:27.372Z,25.36
2018-04-22T11:33:58.278Z,25.47
2018-04-22T11:36:28.102Z,25.47
2018-04-22T11:38:57.779Z,25.52
2018-04-22T11:41:27.113Z,25.58
2018-04-22T11:43:55.744Z,25.68
2018-04-22T11:46:24.748Z,25.69
2018-04-22T11:48:53.221Z,25.66
2018-04-22T11:51:22.822Z,25.63
2018-04-22T11:53:52.148Z,25.66
2018-04-22T11:56:22.997Z,25.74
2018-04-22T11:58:54.388Z,25.83
2018-04-22T12:01:24.155Z,25.84
2018-04-22T12:03:52.853Z,25.82
2018-04-22T12:06:21.595Z,26.01
2018-04-22T12:08:50.538Z,26.06
2018-04-22T12:11:20.463Z,26.12
2018-04-22T12:13:49.955Z,26.23
2018-04-22T12:16:20.295Z,26.16
2018-04-22T12:18:51.627Z,26.14
2018-04-22T12:21:20.381Z,26.15
2018-04-22T12:23:49.385Z,26.30
2018-04-22T12:26:18.200Z,26.38
2018-04-22T12:28:47.105Z,26.44
2018-04-22T12:31:17.524Z,26.44
2018-04-22T12:33:46.544Z,26.53
2018-04-22T12:36:15.336Z,26.57
2018-04-22T12:38:44.235Z,26.59
2018-04-22T12:41:13.916Z,26.67
2018-04-22T12:56:43.436Z,27.28
2018-04-22T12:59:13.180Z,27.38
2018-04-22T13:01:44.370Z,27.37
2018-04-22T13:04:16.021Z,27.43
2018-04-22T13:06:44.755Z,27.50
2018-04-22T13:09:13.747Z,27.48
2018-04-22T13:11:42.406Z,27.68
2018-04-22T13:14:12.123Z,27.83
2018-04-22T13:16:43.144Z,27.92
2018-04-22T13:19:13.833Z,27.83
2018-04-22T13:21:42.518Z,27.85
2018-04-22T13:24:11.640Z,27.89
2018-04-22T13:26:41.999Z,27.96
2018-04-22T13:29:15.164Z,28.14
2018-04-22T13:31:44.085Z,28.26
2018-04-22T13:34:13.054Z,28.30
2018-04-22T13:36:42.254Z,28.30
2018-04-22T13:39:11.037Z,28.22
2018-04-22T13:41:41.965Z,28.00
2018-04-22T13:44:10.769Z,27.92
2018-04-22T13:46:42.008Z,27.95
2018-04-22T13:49:10.917Z,28.08
2018-04-22T13:51:42.265Z,28.33
2018-04-22T13:54:13.530Z,28.48
2018-04-22T13:56:42.298Z,28.56
2018-04-22T13:59:13.169Z,28.71
2018-04-22T14:01:41.969Z,28.91
2018-04-22T14:04:12.308Z,29.14
2018-04-22T14:06:44.119Z,29.26
2018-04-22T14:09:12.812Z,29.36
2018-04-22T14:11:42.425Z,29.53
2018-04-22T14:14:11.217Z,29.60
2018-04-22T14:16:40.116Z,29.58
2018-04-22T14:19:09.040Z,29.38
2018-04-22T14:21:37.905Z,29.63
2018-04-22T14:24:09.149Z,30.13
2018-04-22T14:26:40.072Z,30.45
2018-04-22T14:29:08.344Z,30.88
2018-04-22T14:31:37.043Z,31.30
2018-04-22T14:34:06.028Z,31.69
2018-04-22T14:36:37.096Z,32.22
2018-04-22T14:39:05.377Z,32.36
2018-04-22T14:41:33.552Z,32.04
2018-04-22T14:44:14.046Z,32.23
2018-04-22T14:46:44.016Z,32.65
2018-04-22T14:49:12.600Z,32.79
2018-04-22T14:51:41.441Z,33.09
2018-04-22T14:54:11.012Z,33.15
2018-04-22T14:56:39.304Z,32.90
2018-04-22T14:59:14.877Z,32.59
2018-04-22T15:01:44.682Z,32.48
2018-04-22T15:04:14.687Z,32.58
2018-04-22T15:06:43.096Z,32.69
2018-04-22T15:09:11.553Z,32.23
2018-04-22T15:11:41.078Z,32.50
2018-04-22T15:14:10.394Z,32.89
2018-04-22T15:16:39.469Z,33.21
2018-04-22T15:19:07.665Z,33.21
2018-04-22T15:21:36.470Z,33.08
2018-04-22T15:24:05.121Z,33.14
2018-04-22T15:26:33.706Z,33.17
2018-04-22T15:29:02.161Z,33.32
2018-04-22T15:31:32.807Z,33.37
2018-04-22T15:34:01.322Z,33.38
2018-04-22T15:36:29.907Z,33.33
2018-04-22T15:38:58.154Z,33.41
2018-04-22T15:41:26.794Z,33.37
2018-04-22T15:43:57.985Z,33.38
2018-04-22T15:46:27.310Z,33.39
2018-04-22T15:48:55.656Z,33.30
2018-04-22T15:51:23.882Z,32.92
2018-04-22T15:53:52.163Z,32.84
2018-04-22T15:56:20.414Z,32.95
2018-04-22T15:58:48.771Z,32.85
2018-04-22T16:01:17.502Z,32.74
2018-04-22T16:03:46.432Z,32.56
2018-04-22T16:06:14.668Z,32.32
2018-04-22T16:08:43.406Z,31.90
2018-04-22T16:11:12.146Z,31.57
2018-04-22T16:13:40.357Z,31.19
2018-04-22T16:16:11.263Z,30.73
2018-04-22T16:18:39.474Z,30.28
2018-04-22T16:21:08.177Z,30.03
2018-04-22T16:23:37.665Z,29.75
2018-04-22T16:26:06.681Z,29.37
2018-04-22T16:28:36.802Z,29.12
2018-04-22T16:31:07.372Z,29.03
2018-04-22T16:33:38.998Z,28.92
2018-04-22T16:36:12.233Z,28.72
2018-04-22T16:38:42.261Z,28.54
2018-04-22T16:41:13.356Z,28.41
2018-04-22T16:43:42.044Z,28.19
2018-04-22T16:46:10.741Z,27.98
2018-04-22T16:48:39.676Z,27.88
2018-04-22T16:51:10.195Z,27.67
2018-04-22T16:53:38.965Z,27.56
2018-04-22T16:56:09.241Z,27.45
2018-04-22T16:58:38.904Z,27.33
2018-04-22T17:01:07.592Z,27.25
2018-04-22T17:03:36.276Z,27.13
2018-04-22T17:06:06.432Z,27.03
2018-04-22T17:08:36.440Z,26.88
2018-04-22T17:11:05.317Z,26.78
2018-04-22T17:13:35.327Z,26.68
2018-04-22T17:16:04.036Z,26.60
2018-04-22T17:18:33.736Z,26.53
2018-04-22T17:21:02.007Z,26.46
2018-04-22T17:23:30.768Z,26.37
2018-04-22T17:25:59.503Z,26.28
2018-04-22T17:28:29.095Z,26.19
2018-04-22T17:30:58.511Z,26.09
2018-04-22T17:33:28.489Z,26.01
2018-04-22T17:35:57.628Z,25.90
2018-04-22T17:38:26.301Z,25.78
2018-04-22T17:40:54.806Z,25.62
2018-04-22T17:43:24.508Z,25.47
2018-04-22T17:45:52.759Z,25.35
2018-04-22T17:48:21.399Z,25.22
2018-04-22T17:50:50.083Z,25.09
2018-04-22T17:53:19.092Z,24.98
2018-04-22T17:55:50.193Z,24.89
2018-04-22T17:58:18.418Z,24.80
2018-04-22T18:00:46.675Z,24.69
2018-04-22T18:03:15.420Z,24.56
2018-04-22T18:05:44.065Z,24.45
2018-04-22T18:08:13.805Z,24.32
2018-04-22T18:10:42.566Z,24.16
2018-04-22T18:13:12.070Z,23.97
2018-04-22T18:15:41.326Z,23.79
2018-04-22T18:18:12.263Z,23.62
2018-04-22T18:20:44.027Z,23.46
2018-04-22T18:23:15.098Z,23.37
2018-04-22T18:25:46.553Z,23.25
2018-04-22T18:28:15.378Z,23.15
2018-04-22T18:30:46.237Z,23.05
2018-04-22T18:33:17.117Z,22.90
2018-04-22T18:35:49.347Z,22.81
2018-04-22T18:38:19.870Z,22.68
2018-04-22T18:40:53.653Z,22.56
2018-04-22T18:43:25.591Z,22.46
2018-04-22T18:46:05.204Z,22.37
2018-04-22T18:48:34.883Z,22.27
2018-04-22T18:51:10.712Z,22.20
2018-04-22T18:53:43.089Z,22.14
2018-04-22T18:56:16.257Z,22.07
2018-04-22T18:58:47.857Z,21.96
2018-04-22T19:01:20.313Z,21.86
2018-04-22T19:03:51.461Z,21.79
2018-04-22T19:06:21.671Z,21.74
2018-04-22T19:08:53.789Z,21.64
2018-04-22T19:11:23.699Z,21.53
2018-04-22T19:13:57.062Z,21.39
2018-04-22T19:16:27.258Z,21.25
2018-04-22T19:18:57.919Z,21.13
2018-04-22T19:21:31.502Z,21.03
2018-04-22T19:24:03.831Z,20.94
2018-04-22T19:26:37.864Z,20.85
2018-04-22T19:29:09.683Z,20.77
2018-04-22T19:31:42.517Z,20.66
2018-04-22T19:34:16.578Z,20.56
2018-04-22T19:36:47.895Z,20.48
2018-04-22T19:39:19.887Z,20.45
2018-04-22T19:41:51.505Z,20.43
2018-04-22T19:44:20.230Z,20.38
2018-04-22T19:46:49.519Z,20.32
2018-04-22T19:49:19.383Z,20.28
2018-04-22T19:51:49.619Z,20.22
2018-04-22T19:54:20.744Z,20.14
2018-04-22T19:56:57.779Z,20.08
2018-04-22T19:59:32.335Z,20.01
2018-04-22T20:02:02.577Z,19.89
2018-04-22T20:04:33.152Z,19.71
2018-04-22T20:07:08.444Z,19.57
2018-04-22T20:09:41.429Z,19.42
2018-04-22T20:12:12.897Z,19.28
2018-04-22T20:14:44.436Z,19.22
2018-04-22T20:17:16.140Z,19.13
2018-04-22T20:19:47.752Z,19.05
2018-04-22T20:22:18.888Z,19.02
2018-04-22T20:24:47.568Z,19.00
2018-04-22T20:27:18.852Z,18.96
2018-04-22T20:29:50.443Z,18.93
2018-04-22T20:32:20.422Z,18.93
2018-04-22T20:34:52.277Z,18.90
2018-04-22T20:37:25.324Z,18.88
2018-04-22T20:39:56.412Z,18.88
2018-04-22T20:42:25.201Z,18.85
2018-04-22T20:44:54.104Z,18.80
2018-04-22T20:47:22.979Z,18.76
2018-04-22T20:49:55.040Z,18.70
2018-04-22T20:52:26.285Z,18.62
2018-04-22T20:54:54.942Z,18.50
2018-04-22T20:57:23.968Z,18.46
2018-04-22T20:59:54.911Z,18.42
2018-04-22T21:02:23.628Z,18.36
2018-04-22T21:04:52.591Z,18.30
2018-04-22T21:07:22.354Z,18.16
2018-04-22T21:09:51.006Z,17.99
2018-04-22T21:12:19.894Z,17.92
2018-04-22T21:14:48.683Z,17.89
2018-04-22T21:17:17.346Z,17.87
2018-04-22T21:19:48.458Z,17.82
2018-04-22T21:22:18.698Z,17.77
2018-04-22T21:24:47.330Z,17.68
2018-04-22T21:27:15.933Z,17.66
2018-04-22T21:29:44.459Z,17.65
2018-04-22T21:32:13.398Z,17.62
2018-04-22T21:34:42.001Z,17.60
2018-04-22T21:37:11.735Z,17.57
2018-04-22T21:39:40.548Z,17.46
2018-04-22T21:42:10.207Z,17.41
2018-04-22T21:44:39.028Z,17.36
2018-04-22T21:47:09.305Z,17.31
2018-04-22T21:49:39.040Z,17.27
2018-04-22T21:52:08.649Z,17.17
2018-04-22T21:54:38.046Z,17.10
2018-04-22T21:57:09.605Z,17.04
2018-04-22T21:59:39.415Z,16.97
2018-04-22T22:02:11.059Z,16.93
2018-04-22T22:04:42.849Z,16.92
2018-04-22T22:07:13.074Z,16.92
2018-04-22T22:09:41.856Z,16.91
2018-04-22T22:12:11.221Z,16.92
2018-04-22T22:14:41.739Z,16.92
2018-04-22T22:17:14.838Z,16.89
2018-04-22T22:19:43.680Z,16.88
2018-04-22T22:22:12.278Z,16.84
2018-04-22T22:24:40.941Z,16.75
2018-04-22T22:27:09.636Z,16.69
2018-04-22T22:29:38.433Z,16.63
2018-04-22T22:32:07.400Z,16.57
2018-04-22T22:34:35.978Z,16.48
2018-04-22T22:37:09.209Z,16.40
2018-04-22T22:39:39.087Z,16.35
2018-04-22T22:42:08.438Z,16.31
2018-04-22T22:44:37.122Z,16.26
2018-04-22T22:47:08.677Z,16.22
2018-04-22T22:49:38.423Z,16.15
2018-04-22T22:52:08.035Z,16.09
2018-04-22T22:54:36.631Z,16.08
2018-04-22T22:57:07.841Z,16.07
2018-04-22T22:59:36.505Z,16.03
2018-04-22T23:02:05.219Z,16.01
2018-04-22T23:04:33.911Z,15.94
2018-04-22T23:07:02.795Z,15.88
2018-04-22T23:09:31.800Z,15.85
2018-04-22T23:12:00.039Z,15.82
2018-04-22T23:14:29.069Z,15.81
2018-04-22T23:16:57.720Z,15.76
2018-04-22T23:19:26.471Z,15.76
2018-04-22T23:21:55.300Z,15.76
2018-04-22T23:24:24.625Z,15.75
2018-04-22T23:26:54.117Z,15.75
2018-04-22T23:29:22.929Z,15.74
2018-04-22T23:31:55.005Z,15.68
2018-04-22T23:34:28.918Z,15.56
2018-04-22T23:36:58.432Z,15.55
2018-04-22T23:39:27.233Z,15.54
2018-04-22T23:41:55.905Z,15.46
2018-04-22T23:44:24.568Z,15.31
2018-04-22T23:46:53.287Z,15.18
2018-04-22T23:49:21.762Z,15.06
2018-04-22T23:51:51.441Z,15.09
2018-04-22T23:54:20.280Z,15.14
2018-04-22T23:56:48.966Z,15.13
2018-04-22T23:59:18.370Z,15.12
